createdAt,value
2023-02-11T00:01:38.095Z,-1.70
2023-02-11T00:04:07.687Z,-1.70
2023-02-11T00:06:37.122Z,0.40
2023-02-11T00:09:06.032Z,-1.40
2023-02-11T00:11:34.078Z,-1.40
2023-02-11T00:14:04.151Z,-1.40
2023-02-11T00:16:33.777Z,-1.30
2023-02-11T00:19:03.349Z,-1.30
2023-02-11T00:21:31.558Z,-1.30
2023-02-11T00:24:02.434Z,-1.70
2023-02-11T00:26:32.660Z,-1.30
2023-02-11T00:29:02.607Z,-1.30
2023-02-11T00:31:31.309Z,0.40
2023-02-11T00:34:01.411Z,-1.30
2023-02-11T00:36:31.073Z,-1.30
2023-02-11T00:39:01.622Z,-1.20
2023-02-11T00:41:29.779Z,-1.10
2023-02-11T00:43:57.985Z,-1.30
2023-02-11T00:46:26.353Z,-1.10
2023-02-11T00:48:57.595Z,-1.00
2023-02-11T00:51:27.988Z,-1.10
2023-02-11T00:53:56.499Z,-1.10
2023-02-11T00:56:24.581Z,-1.60
2023-02-11T00:58:53.350Z,-1.20
2023-02-11T01:01:21.664Z,-1.20
2023-02-11T01:03:49.894Z,-1.20
2023-02-11T01:06:18.866Z,-1.60
2023-02-11T01:08:48.588Z,1.90
2023-02-11T01:11:18.830Z,-1.50
2023-02-11T01:13:47.873Z,0.70
2023-02-11T01:16:17.781Z,-1.30
2023-02-11T01:18:47.421Z,-1.40
2023-02-11T01:21:16.310Z,-1.20
2023-02-11T01:23:44.693Z,-1.40
2023-02-11T01:26:14.282Z,1.00
2023-02-11T01:28:42.709Z,-1.30
2023-02-11T01:31:11.083Z,-1.30
2023-02-11T01:33:39.228Z,-0.80
2023-02-11T01:36:08.400Z,-2.00
2023-02-11T01:38:36.840Z,-1.30
2023-02-11T01:41:07.691Z,0.10
2023-02-11T01:43:38.856Z,-2.20
2023-02-11T01:46:21.356Z,-1.40
2023-02-11T01:48:53.783Z,-1.30
2023-02-11T01:51:25.319Z,-1.30
2023-02-11T01:54:12.744Z,-1.30
2023-02-11T01:57:04.201Z,-1.30
2023-02-11T01:59:37.157Z,1.00
2023-02-11T02:02:12.174Z,1.60
2023-02-11T02:04:46.227Z,0.60
2023-02-11T02:07:23.717Z,-0.20
2023-02-11T02:09:59.086Z,-1.20
2023-02-11T02:12:27.189Z,-1.20
2023-02-11T02:15:24.339Z,-1.20
2023-02-11T02:18:01.804Z,-1.20
2023-02-11T02:21:07.839Z,-1.20
2023-02-11T02:23:53.879Z,-1.30
2023-02-11T02:26:52.868Z,-1.10
2023-02-11T02:30:12.359Z,-1.40
2023-02-11T02:33:21.420Z,-1.30
2023-02-11T02:35:59.082Z,-1.30
2023-02-11T02:38:34.937Z,-0.40
2023-02-11T02:41:07.398Z,-1.40
2023-02-11T02:43:37.165Z,-1.30
2023-02-11T02:46:24.938Z,0.90
2023-02-11T02:48:56.118Z,-1.20
2023-02-11T02:51:40.318Z,-0.40
2023-02-11T02:54:36.988Z,-1.30
2023-02-11T02:57:19.673Z,-1.20
2023-02-11T03:00:03.571Z,-1.20
2023-02-11T03:02:36.278Z,-1.20
2023-02-11T03:05:11.495Z,-1.20
2023-02-11T03:07:44.786Z,-1.20
2023-02-11T03:10:18.151Z,-1.10
2023-02-11T03:12:47.512Z,-1.10
2023-02-11T03:15:18.333Z,0.40
2023-02-11T03:17:50.745Z,-1.00
2023-02-11T03:20:24.065Z,-1.00
2023-02-11T03:22:57.041Z,-0.90
2023-02-11T03:25:31.541Z,-0.60
2023-02-11T03:28:08.392Z,-0.80
2023-02-11T03:30:43.026Z,-0.90
2023-02-11T03:33:17.863Z,-0.90
2023-02-11T03:35:55.725Z,-1.00
2023-02-11T03:38:29.036Z,-0.30
2023-02-11T03:40:58.422Z,-1.20
2023-02-11T03:43:32.597Z,-0.60
2023-02-11T03:46:03.078Z,-1.30
2023-02-11T03:48:36.426Z,-1.30
2023-02-11T03:51:09.501Z,-1.40
2023-02-11T03:53:39.992Z,-0.40
2023-02-11T03:56:11.968Z,-1.40
2023-02-11T03:58:40.193Z,-1.30
2023-02-11T04:01:09.921Z,-1.50
2023-02-11T04:03:38.164Z,2.40
2023-02-11T04:06:08.194Z,-1.60
2023-02-11T04:08:36.656Z,-1.60
2023-02-11T04:11:05.139Z,-1.00
2023-02-11T04:13:33.159Z,-1.80
2023-02-11T04:16:01.813Z,0.50
2023-02-11T04:18:29.910Z,-1.80
2023-02-11T04:20:57.929Z,-1.80
2023-02-11T04:23:27.764Z,-2.20
2023-02-11T04:25:56.123Z,-1.80
2023-02-11T04:28:24.537Z,0.30
2023-02-11T04:30:52.932Z,-1.60
2023-02-11T04:33:21.194Z,-1.70
2023-02-11T04:35:49.750Z,-1.70
2023-02-11T04:38:18.421Z,1.10
2023-02-11T04:40:48.038Z,-1.80
2023-02-11T04:43:16.116Z,-1.60
2023-02-11T04:45:44.338Z,-1.30
2023-02-11T04:48:12.393Z,0.90
2023-02-11T04:50:40.441Z,0.60
2023-02-11T04:53:08.446Z,-1.50
2023-02-11T04:55:36.708Z,-1.50
2023-02-11T04:58:06.253Z,-1.80
2023-02-11T05:00:34.390Z,-1.50
2023-02-11T05:03:02.471Z,0.80
2023-02-11T05:05:30.648Z,2.90
2023-02-11T05:07:58.821Z,-1.50
2023-02-11T05:10:27.254Z,-0.20
2023-02-11T05:12:56.079Z,-1.50
2023-02-11T05:15:25.719Z,-1.60
2023-02-11T05:17:53.978Z,-1.50
2023-02-11T05:20:22.384Z,-1.40
2023-02-11T05:22:50.472Z,-1.40
2023-02-11T05:25:18.780Z,-1.30
2023-02-11T05:27:59.047Z,0.00
2023-02-11T05:30:29.196Z,-1.20
2023-02-11T05:32:57.805Z,-1.10
2023-02-11T05:35:26.230Z,-1.10
2023-02-11T05:37:54.414Z,-0.40
2023-02-11T05:40:22.710Z,-1.00
2023-02-11T05:42:51.874Z,-1.00
2023-02-11T05:45:20.462Z,-1.00
2023-02-11T05:47:50.665Z,3.30
2023-02-11T05:50:19.300Z,-1.00
2023-02-11T05:52:48.384Z,1.10
2023-02-11T05:55:17.336Z,-3.10
2023-02-11T05:57:45.802Z,-0.20
2023-02-11T06:00:15.595Z,-0.90
2023-02-11T06:02:44.463Z,-4.10
2023-02-11T06:05:15.846Z,-0.90
2023-02-11T06:07:44.752Z,-0.80
2023-02-11T06:10:13.788Z,-0.80
2023-02-11T06:12:42.000Z,-0.70
2023-02-11T06:15:10.483Z,-0.70
2023-02-11T06:17:39.309Z,-0.80
2023-02-11T06:20:10.533Z,-0.70
2023-02-11T06:22:40.720Z,-0.60
2023-02-11T06:25:09.715Z,-0.60
2023-02-11T06:27:38.497Z,-0.50
2023-02-11T06:30:07.786Z,-0.30
2023-02-11T06:32:43.696Z,-0.50
2023-02-11T06:35:13.206Z,2.60
2023-02-11T06:37:43.551Z,-0.50
2023-02-11T06:40:12.937Z,-0.60
2023-02-11T06:42:41.762Z,-0.60
2023-02-11T06:45:12.956Z,1.20
2023-02-11T06:47:41.923Z,-0.60
2023-02-11T06:50:12.864Z,1.60
2023-02-11T06:52:42.972Z,-0.60
2023-02-11T06:55:11.576Z,-0.90
2023-02-11T06:57:40.491Z,-0.50
2023-02-11T07:00:11.011Z,3.40
2023-02-11T07:02:39.340Z,-0.40
2023-02-11T07:05:17.212Z,2.70
2023-02-11T07:07:47.264Z,-0.30
2023-02-11T07:10:17.158Z,2.60
2023-02-11T07:15:41.944Z,1.50
2023-02-11T07:18:12.466Z,3.40
2023-02-11T07:20:41.941Z,0.60
2023-02-11T07:23:12.138Z,-0.10
2023-02-11T07:25:40.781Z,-0.10
2023-02-11T07:28:08.845Z,-0.30
2023-02-11T07:30:36.966Z,0.00
2023-02-11T07:33:06.799Z,0.40
2023-02-11T07:35:35.169Z,0.20
2023-02-11T07:38:03.303Z,0.50
2023-02-11T07:40:33.096Z,-0.10
2023-02-11T07:43:02.986Z,0.30
2023-02-11T07:48:15.320Z,0.40
2023-02-11T07:50:45.253Z,0.40
2023-02-11T07:56:19.569Z,-2.40
2023-02-11T07:59:01.321Z,0.50
2023-02-11T08:04:29.165Z,0.70
2023-02-11T08:06:59.769Z,1.80
2023-02-11T08:09:28.459Z,0.80
2023-02-11T08:11:58.276Z,0.90
2023-02-11T08:14:27.287Z,1.20
2023-02-11T08:16:56.528Z,1.40
2023-02-11T08:19:28.811Z,1.60
2023-02-11T08:21:57.998Z,1.50
2023-02-11T08:24:28.055Z,1.50
2023-02-11T08:32:15.807Z,1.60
2023-02-11T08:34:44.192Z,1.60
2023-02-11T08:37:13.260Z,1.40
2023-02-11T08:39:42.032Z,4.30
2023-02-11T08:42:10.464Z,2.30
2023-02-11T08:44:38.678Z,2.30
2023-02-11T08:47:10.064Z,1.70
2023-02-11T08:49:41.898Z,0.20
2023-02-11T08:52:10.346Z,-0.10
2023-02-11T08:54:39.231Z,-1.30
2023-02-11T08:57:07.610Z,5.30
2023-02-11T08:59:35.826Z,1.80
2023-02-11T09:02:04.195Z,6.50
2023-02-11T09:04:32.690Z,1.80
2023-02-11T09:07:02.584Z,4.10
2023-02-11T09:09:30.879Z,4.90
2023-02-11T09:12:01.125Z,2.60
2023-02-11T09:14:29.636Z,2.30
2023-02-11T09:16:58.614Z,5.80
2023-02-11T09:19:27.684Z,2.30
2023-02-11T09:21:56.035Z,-1.20
2023-02-11T09:24:25.775Z,3.50
2023-02-11T09:26:54.550Z,4.80
2023-02-11T09:29:22.819Z,2.70
2023-02-11T09:31:51.279Z,2.50
2023-02-11T09:34:19.748Z,2.60
2023-02-11T09:36:48.088Z,2.50
2023-02-11T09:39:23.649Z,2.60
2023-02-11T09:42:45.477Z,2.60
2023-02-11T09:45:21.104Z,3.00
2023-02-11T09:47:58.997Z,5.00
2023-02-11T09:50:33.319Z,3.80
2023-02-11T09:53:22.899Z,3.10
2023-02-11T09:56:13.610Z,2.70
2023-02-11T09:58:46.245Z,2.80
2023-02-11T10:13:49.907Z,3.30
2023-02-11T10:21:47.916Z,3.60
2023-02-11T10:27:00.646Z,3.50
2023-02-11T10:29:44.008Z,3.60
2023-02-11T10:32:28.813Z,3.60
2023-02-11T10:35:03.730Z,3.70
2023-02-11T10:37:37.308Z,4.40
2023-02-11T10:40:08.649Z,1.70
2023-02-11T10:42:38.992Z,3.70
2023-02-11T10:45:15.986Z,8.10
2023-02-11T10:47:46.409Z,4.80
2023-02-11T10:50:21.859Z,3.90
2023-02-11T10:52:51.944Z,4.70
2023-02-11T10:55:22.646Z,8.50
2023-02-11T10:58:03.416Z,4.10
2023-02-11T11:00:39.347Z,7.50
2023-02-11T11:24:03.254Z,5.80
2023-02-11T11:29:21.375Z,5.20
2023-02-11T11:31:56.356Z,1.60
2023-02-11T11:45:07.834Z,5.40
2023-02-11T11:47:46.106Z,5.50
2023-02-11T11:50:28.828Z,7.40
2023-02-11T11:53:06.018Z,9.20
2023-02-11T11:55:44.119Z,5.00
2023-02-11T11:58:17.790Z,6.20
2023-02-11T12:00:58.605Z,7.10
2023-02-11T12:03:58.407Z,6.00
2023-02-11T12:06:35.360Z,6.60
2023-02-11T12:09:17.718Z,8.00
2023-02-11T12:12:21.153Z,2.90
2023-02-11T12:15:02.895Z,9.50
2023-02-11T12:17:55.047Z,7.60
2023-02-11T12:29:48.074Z,5.90
2023-02-11T12:32:25.707Z,6.70
2023-02-11T12:35:05.243Z,6.00
2023-02-11T12:37:53.789Z,9.40
2023-02-11T12:40:29.031Z,6.50
2023-02-11T12:43:17.886Z,6.10
2023-02-11T12:46:21.295Z,8.30
2023-02-11T12:49:11.376Z,6.00
2023-02-11T12:51:52.744Z,8.60
2023-02-11T12:54:57.446Z,10.10
2023-02-11T12:57:35.348Z,6.50
2023-02-11T13:02:55.789Z,5.60
2023-02-11T13:05:30.291Z,3.00
2023-02-11T13:08:19.256Z,5.80
2023-02-11T13:18:57.556Z,6.00
2023-02-11T13:21:57.005Z,6.00
2023-02-11T13:24:33.893Z,6.40
2023-02-11T13:27:11.351Z,6.90
2023-02-11T13:33:22.374Z,7.70
2023-02-11T13:36:16.974Z,8.30
2023-02-11T13:38:56.022Z,8.40
2023-02-11T13:41:29.801Z,9.90
2023-02-11T13:44:29.678Z,9.40
2023-02-11T13:47:02.732Z,9.20
2023-02-11T13:49:37.337Z,8.00
2023-02-11T13:52:17.604Z,8.90
2023-02-11T13:54:51.368Z,7.40
2023-02-11T13:57:41.354Z,7.20
2023-02-11T14:00:48.820Z,7.10
2023-02-11T14:03:47.533Z,7.10
2023-02-11T14:06:38.936Z,7.20
2023-02-11T14:09:40.359Z,7.60
2023-02-11T14:12:38.627Z,7.30
2023-02-11T14:15:29.048Z,8.80
2023-02-11T14:17:57.229Z,7.50
2023-02-11T14:20:43.358Z,8.00
2023-02-11T14:23:28.792Z,7.50
2023-02-11T14:26:06.972Z,7.30
2023-02-11T14:28:36.046Z,7.20
2023-02-11T14:31:11.518Z,10.20
2023-02-11T14:34:04.504Z,5.70
2023-02-11T14:36:54.426Z,3.90
2023-02-11T14:39:34.197Z,7.60
2023-02-11T14:42:04.707Z,6.90
2023-02-11T14:44:36.065Z,6.80
2023-02-11T14:47:06.190Z,6.70
2023-02-11T14:49:38.174Z,10.20
2023-02-11T14:52:24.431Z,6.80
2023-02-11T14:55:06.264Z,6.70
2023-02-11T14:57:35.619Z,7.50
2023-02-11T15:00:07.534Z,6.70
2023-02-11T15:02:40.041Z,6.70
2023-02-11T15:05:26.271Z,6.60
2023-02-11T15:07:59.720Z,6.70
2023-02-11T15:10:45.016Z,7.10
2023-02-11T15:13:30.143Z,6.60
2023-02-11T15:16:04.085Z,7.40
2023-02-11T15:18:52.544Z,6.50
2023-02-11T15:21:40.570Z,6.60
2023-02-11T15:24:35.773Z,7.70
2023-02-11T15:27:32.005Z,6.50
2023-02-11T15:30:28.928Z,6.00
2023-02-11T15:35:56.741Z,6.60
2023-02-11T15:38:42.536Z,6.50
2023-02-11T15:41:50.498Z,6.40
2023-02-11T15:45:14.759Z,6.20
2023-02-11T15:47:58.060Z,5.80
2023-02-11T15:50:28.916Z,6.20
2023-02-11T15:53:10.132Z,6.20
2023-02-11T15:55:49.975Z,6.20
2023-02-11T15:58:26.904Z,6.20
2023-02-11T16:01:06.211Z,6.20
2023-02-11T16:03:35.473Z,6.10
2023-02-11T16:06:44.289Z,7.30
2023-02-11T16:09:48.256Z,6.10
2023-02-11T16:12:40.952Z,6.10
2023-02-11T16:15:46.498Z,6.80
2023-02-11T16:18:38.975Z,5.00
2023-02-11T16:21:21.525Z,4.80
2023-02-11T16:23:58.006Z,5.80
2023-02-11T16:26:31.711Z,5.80
2023-02-11T16:29:23.855Z,5.70
2023-02-11T16:32:16.348Z,5.60
2023-02-11T16:34:50.987Z,5.70
2023-02-11T16:37:19.373Z,6.20
2023-02-11T16:39:47.540Z,5.30
2023-02-11T16:42:16.411Z,9.10
2023-02-11T16:44:44.679Z,5.60
2023-02-11T16:47:25.024Z,7.60
2023-02-11T16:50:13.908Z,2.80
2023-02-11T16:52:46.335Z,5.50
2023-02-11T16:55:15.235Z,7.30
2023-02-11T16:57:43.841Z,7.20
2023-02-11T17:00:17.856Z,5.60
2023-02-11T17:02:47.097Z,5.40
2023-02-11T17:05:23.307Z,5.40
2023-02-11T17:07:53.841Z,5.30
2023-02-11T17:10:26.265Z,8.70
2023-02-11T17:12:57.600Z,5.10
2023-02-11T17:15:26.738Z,6.50
2023-02-11T17:18:07.831Z,6.50
2023-02-11T17:21:08.115Z,5.10
2023-02-11T17:23:56.713Z,5.10
2023-02-11T17:26:57.147Z,5.10
2023-02-11T17:29:45.816Z,5.00
2023-02-11T17:32:17.618Z,4.90
2023-02-11T17:34:47.604Z,5.00
2023-02-11T17:37:26.804Z,5.00
2023-02-11T17:39:58.153Z,5.00
2023-02-11T17:42:27.289Z,5.00
2023-02-11T17:44:55.680Z,5.00
2023-02-11T17:47:27.676Z,4.80
2023-02-11T17:49:56.089Z,4.90
2023-02-11T17:52:27.885Z,4.80
2023-02-11T17:54:58.213Z,4.90
2023-02-11T17:57:26.665Z,8.60
2023-02-11T17:59:57.064Z,6.80
2023-02-11T18:02:25.903Z,5.30
2023-02-11T18:04:57.670Z,4.90
2023-02-11T18:07:26.751Z,4.80
2023-02-11T18:09:55.342Z,4.80
2023-02-11T18:12:27.664Z,4.80
2023-02-11T18:14:58.914Z,6.10
2023-02-11T18:21:19.732Z,5.20
2023-02-11T18:29:54.144Z,4.70
2023-02-11T18:32:23.431Z,4.40
2023-02-11T18:34:51.903Z,4.50
2023-02-11T18:37:21.285Z,6.20
2023-02-11T18:40:34.324Z,4.40
2023-02-11T18:43:06.983Z,5.70
2023-02-11T18:45:37.544Z,5.00
2023-02-11T18:48:15.129Z,4.30
2023-02-11T18:50:45.693Z,7.90
2023-02-11T18:53:16.192Z,7.00
2023-02-11T18:55:46.326Z,4.40
2023-02-11T18:58:15.506Z,4.30
2023-02-11T19:00:47.402Z,4.40
2023-02-11T19:03:17.062Z,4.40
2023-02-11T19:05:47.169Z,4.30
2023-02-11T19:08:17.828Z,4.30
2023-02-11T19:10:49.425Z,4.30
2023-02-11T19:13:17.600Z,4.40
2023-02-11T19:15:47.918Z,4.80
2023-02-11T19:18:18.111Z,4.40
2023-02-11T19:20:46.688Z,4.40
2023-02-11T19:23:15.151Z,4.30
2023-02-11T19:25:48.054Z,5.00
2023-02-11T19:28:16.840Z,4.40
2023-02-11T19:30:48.511Z,5.30
2023-02-11T19:33:17.326Z,5.30
2023-02-11T19:35:45.566Z,4.40
2023-02-11T19:38:15.807Z,4.40
2023-02-11T19:40:44.194Z,4.90
2023-02-11T19:43:12.446Z,4.40
2023-02-11T19:45:42.453Z,4.40
2023-02-11T19:48:14.260Z,3.80
2023-02-11T19:50:42.636Z,4.50
2023-02-11T19:53:11.095Z,7.70
2023-02-11T19:55:39.468Z,4.50
2023-02-11T19:58:07.888Z,4.40
2023-02-11T20:00:38.776Z,4.50
2023-02-11T20:03:07.392Z,6.20
2023-02-11T20:05:42.905Z,6.40
2023-02-11T20:08:11.802Z,4.60
2023-02-11T20:10:40.581Z,4.60
2023-02-11T20:13:09.879Z,4.60
2023-02-11T20:15:38.246Z,4.60
2023-02-11T20:18:06.848Z,4.60
2023-02-11T20:20:39.028Z,4.50
2023-02-11T20:23:08.872Z,4.60
2023-02-11T20:25:41.806Z,4.60
2023-02-11T20:28:10.882Z,4.60
2023-02-11T20:30:40.584Z,4.60
2023-02-11T20:33:09.292Z,4.70
2023-02-11T20:35:39.972Z,4.60
2023-02-11T20:38:09.252Z,4.70
2023-02-11T20:40:38.461Z,7.90
2023-02-11T20:43:06.556Z,6.10
2023-02-11T20:45:37.148Z,5.20
2023-02-11T20:48:15.541Z,4.80
2023-02-11T20:50:56.101Z,4.70
2023-02-11T20:53:24.957Z,6.00
2023-02-11T20:55:56.092Z,4.70
2023-02-11T20:58:24.743Z,5.20
2023-02-11T21:00:53.593Z,4.30
2023-02-11T21:03:22.944Z,5.20
2023-02-11T21:06:00.836Z,4.70
2023-02-11T21:08:29.544Z,4.70
2023-02-11T21:10:59.495Z,4.70
2023-02-11T21:13:29.229Z,4.70
2023-02-11T21:18:40.834Z,5.80
2023-02-11T21:21:13.452Z,4.80
2023-02-11T21:23:43.514Z,7.00
2023-02-11T21:26:12.322Z,4.70
2023-02-11T21:28:44.759Z,4.70
2023-02-11T21:31:21.935Z,7.60
2023-02-11T21:33:52.286Z,4.70
2023-02-11T21:36:23.517Z,4.70
2023-02-11T21:38:52.377Z,4.70
2023-02-11T21:41:24.999Z,4.80
2023-02-11T21:43:54.501Z,6.10
2023-02-11T21:46:24.152Z,5.40
2023-02-11T21:48:53.587Z,4.50
2023-02-11T21:51:28.092Z,7.80
2023-02-11T21:53:58.542Z,4.60
2023-02-11T21:56:29.001Z,4.70
2023-02-11T21:59:01.164Z,5.00
2023-02-11T22:01:31.514Z,4.80
2023-02-11T22:04:04.325Z,4.80
2023-02-11T22:09:23.671Z,4.80
2023-02-11T22:11:53.886Z,5.10
2023-02-11T22:14:22.649Z,4.70
2023-02-11T22:16:58.109Z,5.30
2023-02-11T22:19:30.351Z,4.70
2023-02-11T22:25:04.304Z,4.70
2023-02-11T22:30:24.709Z,4.70
2023-02-11T22:32:56.410Z,4.70
2023-02-11T22:35:24.982Z,3.80
2023-02-11T22:37:55.468Z,4.70
2023-02-11T22:40:26.399Z,4.70
2023-02-11T22:43:03.989Z,4.70
2023-02-11T22:45:35.527Z,4.70
2023-02-11T22:48:04.194Z,4.70
2023-02-11T22:50:33.076Z,4.70
2023-02-11T22:53:03.294Z,4.70
2023-02-11T22:55:31.608Z,4.70
2023-02-11T22:58:00.348Z,4.70
2023-02-11T23:00:37.026Z,4.70
2023-02-11T23:03:06.492Z,4.80
2023-02-11T23:05:39.479Z,4.60
2023-02-11T23:08:12.875Z,6.70
2023-02-11T23:10:42.137Z,4.70
2023-02-11T23:13:11.780Z,4.60
2023-02-11T23:15:42.590Z,5.10
2023-02-11T23:18:11.196Z,4.60
2023-02-11T23:20:41.834Z,4.70
2023-02-11T23:23:13.681Z,4.60
2023-02-11T23:25:46.683Z,4.60
2023-02-11T23:28:15.524Z,6.50
2023-02-11T23:30:44.375Z,4.50
2023-02-11T23:33:12.834Z,4.50
2023-02-11T23:35:41.402Z,4.30
2023-02-11T23:38:12.960Z,4.50
2023-02-11T23:40:41.726Z,5.60
2023-02-11T23:43:10.731Z,4.50
2023-02-11T23:45:39.556Z,6.90
2023-02-11T23:48:07.995Z,4.40
2023-02-11T23:50:39.706Z,4.40
2023-02-11T23:53:08.063Z,4.60
2023-02-11T23:55:41.492Z,3.00
2023-02-11T23:58:10.699Z,4.40
